Main page
METAR-TAF:

METAR-TAF

Airports :

Gibraltar International Airport

Gibraltar, Gibraltar

latitude: 36-09N, longitude: 005-21W, elevation: 5 m

Current weather observation

The report was made 1 hour and 10 minutes ago, at 05:50 UTC
Wind 11 kt from the East
Temperature 19°C
Humidity 88%
Pressure 1019 hPa
Visibility 10 km or more
Few clouds at a height of 1400 ft

METAR: LXGB 190550Z 09011KT 9999 FEW014 19/17 Q1019

Time: 09:00 (07:00 UTC)

Forecast

The report was made 2 hours and 16 minutes ago, at 04:44 UTC
Forecast valid from 19 at 06 UTC to 19 at 15 UTC
Wind 12 kt from the East
Visibility 10 km or more
Few clouds at a height of 1200 ft
Becoming
from 19 at 07 UTC to 19 at 10 UTC
Wind 16 kt from the East with gusts up to 26 kt

TAF: LXGB 190444Z 1906/1915 09012KT 9999 FEW012 BECMG 1907/1910 10016G26KT

Weather observations and forecasts of more than 4000 airports (METAR and TAF reports).

The available stations are represented by yellow and red dots on the map.

Hover mouse over dot to see the name of the station.

Then click to see weather observations and forecasts.

To change the map : click on the green buttons with a black cross to zoom in, on the green button with a dash to zoom out, or on the green arrows for adjacent maps.


METAR-TAF: